HBA weather

Hobart International Airport
Hobart, Tasmania, Australia

Public forecast

Using degrees Celsius for public forecast. Weather courtesy of forecast.io.

METAR (pilot weather report)

Retrieved 2017/05/24 07:30 UTC (15 minutes ago):

YMHB 240730Z 28011KT 9999 FEW050 12/03 Q1010

TAF (pilot weather forecast)

Retrieved 2017/05/24 06:36 UTC (1 hour ago):

TAF YMHB 240511Z 2406/2506 29012KT 9999 FEW045 FM240800 33008KT 9999 FEW040 FM242300 33014KT 9999 FEW040